nws-alerts: Checking more than four warning/county codes can delay the loading of your pages. You should use a cron job to get the data.
EllijayWeather Station Historical Data
Daily Summary for July 16, 2019 Units:  Metric    English   Both
Daily Weekly Monthly Yearly Custom
  High: Low: Average:
Temperature: 31.2 °C 19.2 °C 24.9 °C
Dew Point: 24 °C 18.7 °C 21.1 °C
Humidity: 98% 50% 82%
Wind Speed: 7.9km/h 0km/h 0.2km/h
Wind Gust: 8km/h - -
Wind- - SSE
Pressure: 1021.2 hPa 1017.5 hPa -
Precipitation: 0 mm    
Historical Graphs
 
 
Tabular Data for July 16, 2019
Time Temperature Dew Point Pressure Wind Wind Speed Wind Gust Humidity Rainfall Rate (Hourly) solar
00:04 22.3 °C 21.5 °C 1020.2 hPa Calm     95% 0 mm meteobridge W/m2
00:09 22.3 °C 21.5 °C 1019.9 hPa Calm     95% 0 mm meteobridge W/m2
00:14 22.2 °C 21.4 °C 1019.9 hPa Calm     95% 0 mm meteobridge W/m2
00:19 22.1 °C 21.3 °C 1020.2 hPa Calm     95% 0 mm meteobridge W/m2
00:24 22.1 °C 21.3 °C 1020.2 hPa Calm     95% 0 mm meteobridge W/m2
00:29 21.9 °C 21.1 °C 1020.2 hPa Calm     95% 0 mm meteobridge W/m2
00:34 21.9 °C 21.1 °C 1020.2 hPa Calm     95% 0 mm meteobridge W/m2
00:39 21.8 °C 21.1 °C 1020.2 hPa Calm     96% 0 mm meteobridge W/m2
00:44 21.8 °C 21 °C 1020.2 hPa Calm     95% 0 mm meteobridge W/m2
00:49 21.8 °C 21 °C 1020.2 hPa Calm     95% 0 mm meteobridge W/m2
00:54 21.7 °C 21 °C 1020.2 hPa Calm     96% 0 mm meteobridge W/m2
00:59 21.7 °C 21 °C 1020.2 hPa Calm     96% 0 mm meteobridge W/m2
01:04 21.7 °C 21 °C 1019.9 hPa Calm     96% 0 mm meteobridge W/m2
01:09 21.6 °C 20.9 °C 1019.9 hPa Calm     96% 0 mm meteobridge W/m2
01:14 21.6 °C 20.9 °C 1019.9 hPa Calm     96% 0 mm meteobridge W/m2
01:19 21.5 °C 20.8 °C 1019.9 hPa Calm     96% 0 mm meteobridge W/m2
01:24 21.4 °C 20.7 °C 1020.2 hPa Calm     96% 0 mm meteobridge W/m2
01:29 21.4 °C 20.7 °C 1019.9 hPa Calm     96% 0 mm meteobridge W/m2
01:34 21.4 °C 20.7 °C 1020.2 hPa Calm     96% 0 mm meteobridge W/m2
01:39 21.3 °C 20.6 °C 1020.2 hPa Calm     96% 0 mm meteobridge W/m2
01:44 21.2 °C 20.5 °C 1020.2 hPa Calm     96% 0 mm meteobridge W/m2
01:49 21.2 °C 20.5 °C 1020.2 hPa Calm     96% 0 mm meteobridge W/m2
01:54 21.2 °C 20.5 °C 1020.2 hPa Calm     96% 0 mm meteobridge W/m2
01:59 21.1 °C 20.4 °C 1019.9 hPa Calm     96% 0 mm meteobridge W/m2
02:04 21.1 °C 20.4 °C 1019.9 hPa Calm     96% 0 mm meteobridge W/m2
02:09 21.1 °C 20.4 °C 1019.9 hPa Calm     96% 0 mm meteobridge W/m2
02:14 21 °C 20.3 °C 1019.9 hPa Calm     96% 0 mm meteobridge W/m2
02:19 20.9 °C 20.2 °C 1019.9 hPa Calm     96% 0 mm meteobridge W/m2
02:24 20.9 °C 20.2 °C 1019.9 hPa Calm     96% 0 mm meteobridge W/m2
02:29 20.8 °C 20.1 °C 1019.9 hPa Calm     96% 0 mm meteobridge W/m2
02:34 20.8 °C 20.1 °C 1019.9 hPa Calm     96% 0 mm meteobridge W/m2
02:39 20.7 °C 20 °C 1019.9 hPa Calm     96% 0 mm meteobridge W/m2
02:44 20.7 °C 20 °C 1019.5 hPa Calm     96% 0 mm meteobridge W/m2
02:49 20.6 °C 19.9 °C 1019.5 hPa Calm     96% 0 mm meteobridge W/m2
02:54 20.6 °C 19.9 °C 1019.5 hPa Calm     96% 0 mm meteobridge W/m2
02:59 20.6 °C 19.9 °C 1019.5 hPa Calm     96% 0 mm meteobridge W/m2
03:04 20.5 °C 19.8 °C 1019.5 hPa Calm     96% 0 mm meteobridge W/m2
03:09 20.5 °C 19.8 °C 1019.5 hPa Calm     96% 0 mm meteobridge W/m2
03:14 20.4 °C 19.7 °C 1019.5 hPa Calm     96% 0 mm meteobridge W/m2
03:19 20.4 °C 19.7 °C 1019.5 hPa Calm     96% 0 mm meteobridge W/m2
03:24 20.4 °C 19.7 °C 1019.5 hPa Calm     96% 0 mm meteobridge W/m2
03:29 20.3 °C 19.6 °C 1019.5 hPa Calm     96% 0 mm meteobridge W/m2
03:34 20.3 °C 19.6 °C 1019.5 hPa Calm     96% 0 mm meteobridge W/m2
03:39 20.3 °C 19.6 °C 1019.5 hPa Calm     96% 0 mm meteobridge W/m2
03:44 20.3 °C 19.6 °C 1019.5 hPa Calm     96% 0 mm meteobridge W/m2
03:49 20.2 °C 19.5 °C 1019.5 hPa Calm     96% 0 mm meteobridge W/m2
03:54 20.1 °C 19.4 °C 1019.5 hPa Calm     96% 0 mm meteobridge W/m2
03:59 20.1 °C 19.4 °C 1019.5 hPa Calm     96% 0 mm meteobridge W/m2
04:04 20.1 °C 19.4 °C 1019.5 hPa Calm     96% 0 mm meteobridge W/m2
04:09 20 °C 19.3 °C 1019.5 hPa Calm     96% 0 mm meteobridge W/m2
04:14 19.9 °C 19.2 °C 1019.5 hPa Calm     96% 0 mm meteobridge W/m2
04:19 19.9 °C 19.2 °C 1019.5 hPa Calm     96% 0 mm meteobridge W/m2
04:24 19.9 °C 19.2 °C 1019.5 hPa Calm     96% 0 mm meteobridge W/m2
04:29 19.8 °C 19.3 °C 1019.5 hPa Calm     97% 0 mm meteobridge W/m2
04:34 19.8 °C 19.3 °C 1019.5 hPa Calm     97% 0 mm meteobridge W/m2
04:39 19.8 °C 19.3 °C 1019.5 hPa Calm     97% 0 mm meteobridge W/m2
04:44 19.8 °C 19.3 °C 1019.5 hPa Calm     97% 0 mm meteobridge W/m2
04:49 19.7 °C 19.2 °C 1019.5 hPa Calm     97% 0 mm meteobridge W/m2
04:54 19.7 °C 19.2 °C 1019.5 hPa Calm     97% 0 mm meteobridge W/m2
04:59 19.7 °C 19.2 °C 1019.5 hPa Calm     97% 0 mm meteobridge W/m2
05:04 19.7 °C 19.2 °C 1019.9 hPa Calm     97% 0 mm meteobridge W/m2
05:09 19.7 °C 19.2 °C 1019.9 hPa Calm     97% 0 mm meteobridge W/m2
05:14 19.6 °C 19.1 °C 1019.9 hPa Calm     97% 0 mm meteobridge W/m2
05:19 19.6 °C 19.1 °C 1019.9 hPa Calm     97% 0 mm meteobridge W/m2
05:24 19.7 °C 19.2 °C 1019.9 hPa Calm     97% 0 mm meteobridge W/m2
05:29 19.6 °C 19.1 °C 1019.9 hPa Calm     97% 0 mm meteobridge W/m2
05:34 19.6 °C 19.1 °C 1020.2 hPa Calm     97% 0 mm meteobridge W/m2
05:39 19.5 °C 19 °C 1019.9 hPa Calm     97% 0 mm meteobridge W/m2
05:44 19.6 °C 19.1 °C 1020.2 hPa Calm     97% 0 mm meteobridge W/m2
05:49 19.5 °C 19 °C 1020.2 hPa Calm     97% 0 mm meteobridge W/m2
05:54 19.4 °C 18.9 °C 1020.2 hPa Calm     97% 0 mm meteobridge W/m2
05:59 19.4 °C 18.9 °C 1020.2 hPa Calm     97% 0 mm meteobridge W/m2
06:04 19.4 °C 18.9 °C 1020.5 hPa Calm     97% 0 mm meteobridge W/m2
06:09 19.3 °C 18.8 °C 1020.5 hPa Calm     97% 0 mm meteobridge W/m2
06:14 19.3 °C 18.8 °C 1020.5 hPa Calm     97% 0 mm meteobridge W/m2
06:19 19.3 °C 18.8 °C 1020.5 hPa Calm     97% 0 mm meteobridge W/m2
06:24 19.3 °C 18.8 °C 1020.5 hPa Calm     97% 0 mm meteobridge W/m2
06:29 19.2 °C 18.7 °C 1020.5 hPa Calm     97% 0 mm meteobridge W/m2
06:34 19.3 °C 18.8 °C 1020.5 hPa Calm     97% 0 mm meteobridge W/m2
06:39 19.2 °C 18.7 °C 1020.5 hPa Calm     97% 0 mm meteobridge W/m2
06:44 19.2 °C 18.7 °C 1020.5 hPa Calm     97% 0 mm meteobridge W/m2
06:49 19.2 °C 18.7 °C 1020.5 hPa Calm     97% 0 mm meteobridge W/m2
06:54 19.2 °C 18.7 °C 1020.5 hPa Calm     97% 0 mm meteobridge W/m2
06:59 19.2 °C 18.7 °C 1020.9 hPa Calm     97% 0 mm meteobridge W/m2
07:04 19.2 °C 18.7 °C 1020.5 hPa Calm     97% 0 mm meteobridge W/m2
07:09 19.2 °C 18.7 °C 1020.5 hPa Calm     97% 0 mm meteobridge W/m2
07:14 19.2 °C 18.7 °C 1020.5 hPa Calm     97% 0 mm meteobridge W/m2
07:19 19.2 °C 18.7 °C 1020.5 hPa Calm     97% 0 mm meteobridge W/m2
07:24 19.2 °C 18.7 °C 1020.9 hPa Calm     97% 0 mm meteobridge W/m2
07:29 19.3 °C 19 °C 1020.9 hPa Calm     98% 0 mm meteobridge W/m2
07:34 19.3 °C 19 °C 1020.9 hPa Calm     98% 0 mm meteobridge W/m2
07:38 19.3 °C 19 °C 1020.9 hPa Calm     98% 0 mm meteobridge W/m2
07:44 19.4 °C 19.1 °C 1020.9 hPa Calm     98% 0 mm meteobridge W/m2
07:49 19.5 °C 19.2 °C 1021.2 hPa Calm     98% 0 mm meteobridge W/m2
07:54 19.6 °C 19.3 °C 1021.2 hPa Calm     98% 0 mm meteobridge W/m2
07:59 19.7 °C 19.4 °C 1021.2 hPa Calm     98% 0 mm meteobridge W/m2
08:04 19.8 °C 19.5 °C 1021.2 hPa Calm     98% 0 mm meteobridge W/m2
08:09 19.9 °C 19.6 °C 1021.2 hPa Calm     98% 0 mm meteobridge W/m2
08:14 20 °C 19.7 °C 1021.2 hPa Calm     98% 0 mm meteobridge W/m2
08:19 20.1 °C 19.8 °C 1021.2 hPa Calm     98% 0 mm meteobridge W/m2
08:24 20.2 °C 19.9 °C 1021.2 hPa Calm     98% 0 mm meteobridge W/m2
08:29 20.4 °C 20.1 °C 1021.2 hPa Calm     98% 0 mm meteobridge W/m2
08:34 20.5 °C 20.2 °C 1021.2 hPa Calm     98% 0 mm meteobridge W/m2
08:39 20.7 °C 20.4 °C 1021.2 hPa Calm     98% 0 mm meteobridge W/m2
08:44 20.8 °C 20.5 °C 1021.2 hPa Calm     98% 0 mm meteobridge W/m2
08:49 21.1 °C 20.8 °C 1021.2 hPa Calm     98% 0 mm meteobridge W/m2
08:54 21.2 °C 20.9 °C 1021.2 hPa Calm     98% 0 mm meteobridge W/m2
08:59 21.4 °C 21.1 °C 1021.2 hPa Calm     98% 0 mm meteobridge W/m2
09:04 21.8 °C 21.3 °C 1021.2 hPa Calm     97% 0 mm meteobridge W/m2
09:09 21.9 °C 21.4 °C 1021.2 hPa Calm     97% 0 mm meteobridge W/m2
09:14 22.3 °C 21.6 °C 1021.2 hPa Calm     96% 0 mm meteobridge W/m2
09:19 22.6 °C 21.9 °C 1021.2 hPa Calm     96% 0 mm meteobridge W/m2
09:24 22.9 °C 21.7 °C 1021.2 hPa Calm     93% 0 mm meteobridge W/m2
09:29 23.2 °C 22.2 °C 1021.2 hPa Calm     94% 0 mm meteobridge W/m2
09:34 23.6 °C 22.4 °C 1021.2 hPa Calm     93% 0 mm meteobridge W/m2
09:39 23.8 °C 22.6 °C 1021.2 hPa Calm     93% 0 mm meteobridge W/m2
09:44 24 °C 22.8 °C 1021.2 hPa Calm     93% 0 mm meteobridge W/m2
09:49 24.3 °C 23.1 °C 1021.2 hPa Calm     93% 0 mm meteobridge W/m2
09:54 24.4 °C 23 °C 1021.2 hPa Calm     92% 0 mm meteobridge W/m2
09:59 24.6 °C 22.8 °C 1021.2 hPa Calm     90% 0 mm meteobridge W/m2
10:04 24.7 °C 23.1 °C 1021.2 hPa Calm     91% 0 mm meteobridge W/m2
10:09 24.9 °C 23.5 °C 1021.2 hPa Calm     92% 0 mm meteobridge W/m2
10:14 25 °C 23.4 °C 1021.2 hPa Calm     91% 0 mm meteobridge W/m2
10:19 25.2 °C 23.6 °C 1021.2 hPa Calm     91% 0 mm meteobridge W/m2
10:24 25.3 °C 23.2 °C 1021.2 hPa Calm     88% 0 mm meteobridge W/m2
10:29 25.5 °C 23.4 °C 1021.2 hPa Calm     88% 0 mm meteobridge W/m2
10:34 25.6 °C 23.3 °C 1021.2 hPa Calm     87% 0 mm meteobridge W/m2
10:39 25.8 °C 23.3 °C 1021.2 hPa Calm     86% 0 mm meteobridge W/m2
10:44 25.8 °C 23.5 °C 1021.2 hPa Calm     87% 0 mm meteobridge W/m2
10:49 26 °C 23.5 °C 1021.2 hPa Calm     86% 0 mm meteobridge W/m2
10:54 26.2 °C 23.5 °C 1021.2 hPa Calm     85% 0 mm meteobridge W/m2
10:59 26.4 °C 23.5 °C 1021.2 hPa Calm     84% 0 mm meteobridge W/m2
11:04 26.5 °C 23.4 °C 1021.2 hPa Calm     83% 0 mm meteobridge W/m2
11:09 26.7 °C 23.8 °C 1021.2 hPa Calm   6.4 km/h 84% 0 mm meteobridge W/m2
11:14 26.8 °C 23.3 °C 1021.2 hPa NW 3.2 km/h 3.2 km/h 81% 0 mm meteobridge W/m2
11:19 27 °C 23.3 °C 1021.2 hPa Calm     80% 0 mm meteobridge W/m2
11:24 27.2 °C 23.4 °C 1021.2 hPa Calm   1.6 km/h 80% 0 mm meteobridge W/m2
11:29 27.5 °C 23.3 °C 1021.2 hPa Calm   6.4 km/h 78% 0 mm meteobridge W/m2
11:34 27.7 °C 23.1 °C 1021.2 hPa Calm     76% 0 mm meteobridge W/m2
11:39 27.9 °C 23.5 °C 1021.2 hPa NNW 1.4 km/h 1.6 km/h 77% 0 mm meteobridge W/m2
11:44 28.1 °C 23.7 °C 1021.2 hPa WNW 1.4 km/h 1.6 km/h 77% 0 mm meteobridge W/m2
11:49 28.3 °C 22.8 °C 1021.2 hPa Calm   4.8 km/h 72% 0 mm meteobridge W/m2
11:54 28.4 °C 23.3 °C 1021.2 hPa NNE 4.7 km/h 4.8 km/h 74% 0 mm meteobridge W/m2
11:59 28.6 °C 23.3 °C 1021.2 hPa Calm   6.4 km/h 73% 0 mm meteobridge W/m2
12:04 28.8 °C 23.7 °C 1021.2 hPa Calm     74% 0 mm meteobridge W/m2
12:09 29.1 °C 24 °C 1020.9 hPa Calm     74% 0 mm meteobridge W/m2
12:14 29.1 °C 23.1 °C 1020.9 hPa Calm   1.6 km/h 70% 0 mm meteobridge W/m2
12:19 29.1 °C 23.1 °C 1020.9 hPa Calm   6.4 km/h 70% 0 mm meteobridge W/m2
12:24 29.1 °C 23.3 °C 1020.9 hPa Calm   4.8 km/h 71% 0 mm meteobridge W/m2
12:29 29.2 °C 23.2 °C 1020.9 hPa Calm     70% 0 mm meteobridge W/m2
12:34 29.1 °C 23.3 °C 1020.9 hPa Calm   1.6 km/h 71% 0 mm meteobridge W/m2
12:39 29.2 °C 22.9 °C 1020.9 hPa Calm   1.6 km/h 69% 0 mm meteobridge W/m2
12:44 29.4 °C 23.1 °C 1020.9 hPa NNW 4.7 km/h 6.4 km/h 69% 0 mm meteobridge W/m2
12:49 29.4 °C 23.1 °C 1020.5 hPa Calm     69% 0 mm meteobridge W/m2
12:54 29.4 °C 23.4 °C 1020.5 hPa Calm   1.6 km/h 70% 0 mm meteobridge W/m2
12:59 29.4 °C 23.8 °C 1020.5 hPa Calm     72% 0 mm meteobridge W/m2
13:04 29.5 °C 23.2 °C 1020.5 hPa Calm   6.4 km/h 69% 0 mm meteobridge W/m2
13:09 29.8 °C 23.5 °C 1020.5 hPa ENE 4.7 km/h 4.8 km/h 69% 0 mm meteobridge W/m2
13:14 30 °C 22.2 °C 1020.5 hPa NW 4.7 km/h 6.4 km/h 63% 0 mm meteobridge W/m2
13:19 30.2 °C 23.1 °C 1020.5 hPa Calm   6.4 km/h 66% 0 mm meteobridge W/m2
13:24 30.4 °C 22.3 °C 1020.5 hPa Calm   4.8 km/h 62% 0 mm meteobridge W/m2
13:29 30.6 °C 22.7 °C 1020.5 hPa NNE 1.4 km/h 1.6 km/h 63% 0 mm meteobridge W/m2
13:34 30.7 °C 23.1 °C 1020.5 hPa Calm     64% 0 mm meteobridge W/m2
13:39 30.7 °C 21.8 °C 1020.5 hPa Calm   8 km/h 59% 0 mm meteobridge W/m2
13:44 30.7 °C 21.5 °C 1020.5 hPa ENE 1.4 km/h 6.4 km/h 58% 0 mm meteobridge W/m2
13:49 30.6 °C 21.4 °C 1020.5 hPa Calm   6.4 km/h 58% 0 mm meteobridge W/m2
13:54 30.6 °C 21.4 °C 1020.5 hPa East 7.9 km/h 8 km/h 58% 0 mm meteobridge W/m2
13:59 30.5 °C 21.3 °C 1020.5 hPa Calm   1.6 km/h 58% 0 mm meteobridge W/m2
14:04 30.6 °C 21.1 °C 1020.5 hPa Calm   3.2 km/h 57% 0 mm meteobridge W/m2
14:09 30.8 °C 21.9 °C 1020.5 hPa Calm   1.6 km/h 59% 0 mm meteobridge W/m2
14:14 30.7 °C 21.2 °C 1020.2 hPa Calm   1.6 km/h 57% 0 mm meteobridge W/m2
14:19 30.6 °C 21.7 °C 1020.2 hPa West 1.4 km/h 1.6 km/h 59% 0 mm meteobridge W/m2
14:24 30.6 °C 21.4 °C 1020.2 hPa Calm   3.2 km/h 58% 0 mm meteobridge W/m2
14:29 30.4 °C 21.5 °C 1020.2 hPa Calm   1.6 km/h 59% 0 mm meteobridge W/m2
14:34 30.3 °C 20 °C 1019.9 hPa Calm   1.6 km/h 54% 0 mm meteobridge W/m2
14:39 30.4 °C 19.7 °C 1019.9 hPa Calm     53% 0 mm meteobridge W/m2
14:44 30.4 °C 20 °C 1019.9 hPa Calm     54% 0 mm meteobridge W/m2
14:49 30.6 °C 20.5 °C 1019.9 hPa Calm   3.2 km/h 55% 0 mm meteobridge W/m2
14:54 30.7 °C 19.7 °C 1019.9 hPa Calm   3.2 km/h 52% 0 mm meteobridge W/m2
14:59 30.7 °C 20.3 °C 1019.9 hPa Calm   1.6 km/h 54% 0 mm meteobridge W/m2
15:04 30.7 °C 19.7 °C 1019.9 hPa Calm   1.6 km/h 52% 0 mm meteobridge W/m2
15:09 30.7 °C 19.1 °C 1019.5 hPa Calm   1.6 km/h 50% 0 mm meteobridge W/m2
15:14 30.8 °C 19.8 °C 1019.5 hPa Calm     52% 0 mm meteobridge W/m2
15:19 30.9 °C 21.1 °C 1019.5 hPa Calm     56% 0 mm meteobridge W/m2
15:24 31 °C 20 °C 1019.5 hPa Calm   1.6 km/h 52% 0 mm meteobridge W/m2
15:29 31.2 °C 20.5 °C 1019.5 hPa Calm   3.2 km/h 53% 0 mm meteobridge W/m2
15:34 31.2 °C 20.2 °C 1019.5 hPa East 1.4 km/h 1.6 km/h 52% 0 mm meteobridge W/m2
15:39 31.2 °C 20.8 °C 1019.5 hPa Calm   3.2 km/h 54% 0 mm meteobridge W/m2
15:44 31.2 °C 20.8 °C 1019.5 hPa Calm   4.8 km/h 54% 0 mm meteobridge W/m2
15:49 31.1 °C 20.4 °C 1019.2 hPa Calm   3.2 km/h 53% 0 mm meteobridge W/m2
15:54 31 °C 19.7 °C 1019.2 hPa Calm   3.2 km/h 51% 0 mm meteobridge W/m2
15:59 31 °C 20.3 °C 1019.2 hPa Calm   1.6 km/h 53% 0 mm meteobridge W/m2
16:04 31 °C 20.6 °C 1019.2 hPa NE 1.4 km/h 1.6 km/h 54% 0 mm meteobridge W/m2
16:09 31.1 °C 20.4 °C 1019.2 hPa Calm   1.6 km/h 53% 0 mm meteobridge W/m2
16:14 31.1 °C 21 °C 1019.2 hPa Calm   1.6 km/h 55% 0 mm meteobridge W/m2
16:19 30.8 °C 20.4 °C 1019.2 hPa Calm   6.4 km/h 54% 0 mm meteobridge W/m2
16:24 30.6 °C 20.5 °C 1019.2 hPa Calm   1.6 km/h 55% 0 mm meteobridge W/m2
16:29 30.6 °C 20.5 °C 1018.8 hPa Calm   1.6 km/h 55% 0 mm meteobridge W/m2
16:34 30.7 °C 20.6 °C 1018.8 hPa Calm     55% 0 mm meteobridge W/m2
16:39 30.7 °C 20.6 °C 1018.8 hPa Calm     55% 0 mm meteobridge W/m2
16:44 30.8 °C 20.4 °C 1018.8 hPa Calm   3.2 km/h 54% 0 mm meteobridge W/m2
16:49 30.8 °C 20.4 °C 1018.8 hPa Calm   1.6 km/h 54% 0 mm meteobridge W/m2
16:54 30.9 °C 20.2 °C 1018.8 hPa Calm   1.6 km/h 53% 0 mm meteobridge W/m2
16:59 30.8 °C 20.4 °C 1018.8 hPa Calm   1.6 km/h 54% 0 mm meteobridge W/m2
17:04 30.7 °C 20.9 °C 1018.5 hPa Calm     56% 0 mm meteobridge W/m2
17:09 30.7 °C 20.9 °C 1018.8 hPa Calm   1.6 km/h 56% 0 mm meteobridge W/m2
17:14 30.7 °C 20.6 °C 1018.5 hPa Calm     55% 0 mm meteobridge W/m2
17:19 30.6 °C 21.1 °C 1018.5 hPa NNE 3.2 km/h 3.2 km/h 57% 0 mm meteobridge W/m2
17:24 30.5 °C 21.6 °C 1018.5 hPa Calm   3.2 km/h 59% 0 mm meteobridge W/m2
17:29 30.5 °C 22.4 °C 1018.5 hPa Calm     62% 0 mm meteobridge W/m2
17:34 30.7 °C 21.8 °C 1018.2 hPa Calm   1.6 km/h 59% 0 mm meteobridge W/m2
17:39 30.7 °C 22.3 °C 1018.2 hPa Calm     61% 0 mm meteobridge W/m2
17:44 30.7 °C 21.5 °C 1018.2 hPa Calm     58% 0 mm meteobridge W/m2
17:49 30.7 °C 20.6 °C 1018.2 hPa East 1.4 km/h 1.6 km/h 55% 0 mm meteobridge W/m2
17:54 30.7 °C 20.9 °C 1017.8 hPa Calm     56% 0 mm meteobridge W/m2
17:59 30.6 °C 21.1 °C 1017.8 hPa Calm     57% 0 mm meteobridge W/m2
18:04 30.6 °C 21.1 °C 1017.8 hPa Calm   3.2 km/h 57% 0 mm meteobridge W/m2
18:09 30.6 °C 20.8 °C 1017.8 hPa Calm     56% 0 mm meteobridge W/m2
18:14 30.5 °C 21.6 °C 1017.8 hPa Calm   1.6 km/h 59% 0 mm meteobridge W/m2
18:19 30.4 °C 22 °C 1017.8 hPa Calm     61% 0 mm meteobridge W/m2
18:24 30.2 °C 21.3 °C 1017.8 hPa Calm   1.6 km/h 59% 0 mm meteobridge W/m2
18:29 30.1 °C 21.5 °C 1017.8 hPa Calm     60% 0 mm meteobridge W/m2
18:34 30.1 °C 21.2 °C 1017.8 hPa Calm     59% 0 mm meteobridge W/m2
18:39 29.9 °C 21 °C 1017.8 hPa Calm     59% 0 mm meteobridge W/m2
18:44 29.9 °C 21.3 °C 1017.8 hPa Calm     60% 0 mm meteobridge W/m2
18:49 29.8 °C 21.2 °C 1017.8 hPa Calm     60% 0 mm meteobridge W/m2
18:54 29.7 °C 21.9 °C 1017.8 hPa Calm     63% 0 mm meteobridge W/m2
18:59 29.5 °C 21.2 °C 1017.8 hPa Calm     61% 0 mm meteobridge W/m2
19:04 29.4 °C 22.4 °C 1017.8 hPa Calm     66% 0 mm meteobridge W/m2
19:09 29.3 °C 22.8 °C 1017.8 hPa Calm     68% 0 mm meteobridge W/m2
19:14 29.1 °C 21.8 °C 1017.5 hPa Calm     65% 0 mm meteobridge W/m2
19:19 28.9 °C 21.7 °C 1017.5 hPa Calm     65% 0 mm meteobridge W/m2
19:24 28.8 °C 21.8 °C 1017.8 hPa Calm     66% 0 mm meteobridge W/m2
19:29 28.7 °C 22.2 °C 1017.8 hPa Calm     68% 0 mm meteobridge W/m2
19:34 28.5 °C 22.5 °C 1017.8 hPa Calm     70% 0 mm meteobridge W/m2
19:39 28.3 °C 22.5 °C 1017.8 hPa Calm     71% 0 mm meteobridge W/m2
19:44 28.1 °C 22.1 °C 1017.8 hPa Calm     70% 0 mm meteobridge W/m2
19:49 27.9 °C 22.4 °C 1017.8 hPa Calm     72% 0 mm meteobridge W/m2
19:54 27.8 °C 22.3 °C 1017.8 hPa Calm     72% 0 mm meteobridge W/m2
19:59 27.6 °C 22.3 °C 1017.8 hPa Calm     73% 0 mm meteobridge W/m2
20:04 27.4 °C 22.4 °C 1017.8 hPa Calm     74% 0 mm meteobridge W/m2
20:09 27.3 °C 22.7 °C 1017.8 hPa Calm     76% 0 mm meteobridge W/m2
20:14 27.1 °C 22.5 °C 1017.8 hPa Calm     76% 0 mm meteobridge W/m2
20:19 27 °C 22.6 °C 1017.8 hPa Calm     77% 0 mm meteobridge W/m2
20:24 26.8 °C 22.6 °C 1017.8 hPa Calm     78% 0 mm meteobridge W/m2
20:29 26.6 °C 22.4 °C 1018.2 hPa Calm     78% 0 mm meteobridge W/m2
20:34 26.3 °C 22.4 °C 1018.2 hPa Calm     79% 0 mm meteobridge W/m2
20:39 26.2 °C 22.5 °C 1018.2 hPa Calm     80% 0 mm meteobridge W/m2
20:44 26.1 °C 22.6 °C 1018.2 hPa Calm     81% 0 mm meteobridge W/m2
20:49 25.8 °C 22.3 °C 1018.2 hPa Calm     81% 0 mm meteobridge W/m2
20:54 25.7 °C 22.4 °C 1018.5 hPa Calm     82% 0 mm meteobridge W/m2
20:59 25.5 °C 22.2 °C 1018.5 hPa Calm     82% 0 mm meteobridge W/m2
21:04 25.3 °C 22.2 °C 1018.5 hPa Calm     83% 0 mm meteobridge W/m2
21:09 25.2 °C 22.1 °C 1018.5 hPa Calm     83% 0 mm meteobridge W/m2
21:14 25.1 °C 22.2 °C 1018.5 hPa Calm     84% 0 mm meteobridge W/m2
21:19 24.9 °C 22.2 °C 1018.5 hPa Calm     85% 0 mm meteobridge W/m2
21:24 24.7 °C 22 °C 1018.8 hPa Calm     85% 0 mm meteobridge W/m2
21:29 24.6 °C 22.1 °C 1018.8 hPa Calm     86% 0 mm meteobridge W/m2
21:34 24.5 °C 22 °C 1018.8 hPa Calm     86% 0 mm meteobridge W/m2
21:39 24.4 °C 22.1 °C 1018.8 hPa Calm     87% 0 mm meteobridge W/m2
21:44 24.3 °C 22 °C 1018.8 hPa Calm     87% 0 mm meteobridge W/m2
21:49 24.1 °C 22 °C 1018.8 hPa Calm     88% 0 mm meteobridge W/m2
21:54 24 °C 21.9 °C 1018.8 hPa Calm     88% 0 mm meteobridge W/m2
21:59 23.9 °C 21.8 °C 1018.8 hPa Calm     88% 0 mm meteobridge W/m2
22:04 23.8 °C 21.9 °C 1018.8 hPa Calm     89% 0 mm meteobridge W/m2
22:09 23.7 °C 21.8 °C 1018.8 hPa Calm     89% 0 mm meteobridge W/m2
22:14 23.6 °C 21.7 °C 1018.8 hPa Calm     89% 0 mm meteobridge W/m2
22:19 23.4 °C 21.5 °C 1018.8 hPa Calm     89% 0 mm meteobridge W/m2
22:24 23.4 °C 21.5 °C 1018.8 hPa Calm     89% 0 mm meteobridge W/m2
22:29 23.3 °C 21.4 °C 1019.2 hPa Calm     89% 0 mm meteobridge W/m2
22:34 23.2 °C 21.3 °C 1019.2 hPa Calm     89% 0 mm meteobridge W/m2
22:39 23.1 °C 21.4 °C 1019.2 hPa Calm     90% 0 mm meteobridge W/m2
22:44 23 °C 21.3 °C 1019.2 hPa Calm     90% 0 mm meteobridge W/m2
22:49 22.9 °C 21.2 °C 1019.2 hPa Calm     90% 0 mm meteobridge W/m2
22:54 22.9 °C 21.4 °C 1019.2 hPa Calm     91% 0 mm meteobridge W/m2
22:59 22.8 °C 21.3 °C 1019.2 hPa Calm     91% 0 mm meteobridge W/m2
23:04 22.7 °C 21.2 °C 1019.2 hPa Calm     91% 0 mm meteobridge W/m2
23:09 22.7 °C 21.2 °C 1019.2 hPa Calm     91% 0 mm meteobridge W/m2
23:14 22.6 °C 21.1 °C 1019.2 hPa Calm     91% 0 mm meteobridge W/m2
23:19 22.5 °C 21.1 °C 1019.5 hPa Calm     92% 0 mm meteobridge W/m2
23:24 22.4 °C 21 °C 1019.5 hPa Calm     92% 0 mm meteobridge W/m2
23:29 22.4 °C 21 °C 1019.5 hPa Calm     92% 0 mm meteobridge W/m2
23:34 22.3 °C 20.9 °C 1019.5 hPa Calm     92% 0 mm meteobridge W/m2
23:39 22.3 °C 20.9 °C 1019.2 hPa Calm     92% 0 mm meteobridge W/m2
23:44 22.2 °C 20.8 °C 1019.2 hPa Calm     92% 0 mm meteobridge W/m2
23:49 22.1 °C 20.9 °C 1019.2 hPa Calm     93% 0 mm meteobridge W/m2
23:54 22.1 °C 20.9 °C 1019.2 hPa Calm     93% 0 mm meteobridge W/m2
23:59 22 °C 20.8 °C 1019.5 hPa Calm     93% 0 mm meteobridge W/m2
EllijayWeather
Compliments of Weather Underground - 2.5 mb